sensor_id;sensor_type;location;lat;lon;timestamp;temperature;humidity
31575;DHT22;18182;1.328;103.810;2023-02-26T00:02:02;28.50;99.90
31575;DHT22;18182;1.328;103.810;2023-02-26T00:04:28;28.50;99.90
31575;DHT22;18182;1.328;103.810;2023-02-26T00:06:54;28.60;99.90
31575;DHT22;18182;1.328;103.810;2023-02-26T00:09:20;28.70;99.90
31575;DHT22;18182;1.328;103.810;2023-02-26T00:11:47;28.70;99.90
31575;DHT22;18182;1.328;103.810;2023-02-26T00:14:14;28.80;99.90
31575;DHT22;18182;1.328;103.810;2023-02-26T00:16:42;28.90;99.90
31575;DHT22;18182;1.328;103.810;2023-02-26T00:19:11;29.00;99.90
31575;DHT22;18182;1.328;103.810;2023-02-26T00:21:38;29.00;99.90
31575;DHT22;18182;1.328;103.810;2023-02-26T00:24:05;29.10;99.90
31575;DHT22;18182;1.328;103.810;2023-02-26T00:26:31;29.10;99.90
31575;DHT22;18182;1.328;103.810;2023-02-26T00:28:58;29.10;99.90
31575;DHT22;18182;1.328;103.810;2023-02-26T00:31:25;29.20;99.90
31575;DHT22;18182;1.328;103.810;2023-02-26T00:33:52;29.20;99.90
31575;DHT22;18182;1.328;103.810;2023-02-26T00:36:23;29.20;99.90
31575;DHT22;18182;1.328;103.810;2023-02-26T00:41:21;28.90;99.90
31575;DHT22;18182;1.328;103.810;2023-02-26T00:43:47;28.80;99.90
31575;DHT22;18182;1.328;103.810;2023-02-26T00:54:27;28.40;99.90
31575;DHT22;18182;1.328;103.810;2023-02-26T00:56:55;28.40;99.90
31575;DHT22;18182;1.328;103.810;2023-02-26T00:59:22;28.50;99.90
31575;DHT22;18182;1.328;103.810;2023-02-26T01:01:49;28.50;99.90
31575;DHT22;18182;1.328;103.810;2023-02-26T01:04:16;28.50;99.90
31575;DHT22;18182;1.328;103.810;2023-02-26T01:06:44;28.50;99.90
31575;DHT22;18182;1.328;103.810;2023-02-26T01:11:40;28.50;99.90
31575;DHT22;18182;1.328;103.810;2023-02-26T01:14:06;28.50;99.90
31575;DHT22;18182;1.328;103.810;2023-02-26T01:16:50;28.50;99.90
31575;DHT22;18182;1.328;103.810;2023-02-26T01:19:19;28.60;99.90
31575;DHT22;18182;1.328;103.810;2023-02-26T01:21:51;28.60;99.90
31575;DHT22;18182;1.328;103.810;2023-02-26T01:24:18;28.80;99.90
31575;DHT22;18182;1.328;103.810;2023-02-26T01:26:46;28.80;99.90
31575;DHT22;18182;1.328;103.810;2023-02-26T01:29:14;28.90;99.90
31575;DHT22;18182;1.328;103.810;2023-02-26T01:31:57;29.00;99.90
31575;DHT22;18182;1.328;103.810;2023-02-26T01:36:59;29.10;99.90
31575;DHT22;18182;1.328;103.810;2023-02-26T01:39:28;29.10;99.90
31575;DHT22;18182;1.328;103.810;2023-02-26T01:50:20;29.20;99.90
31575;DHT22;18182;1.328;103.810;2023-02-26T01:55:20;29.50;99.90
31575;DHT22;18182;1.328;103.810;2023-02-26T01:57:47;29.40;99.90
31575;DHT22;18182;1.328;103.810;2023-02-26T02:00:14;29.40;99.90
31575;DHT22;18182;1.328;103.810;2023-02-26T02:02:41;29.50;99.90
31575;DHT22;18182;1.328;103.810;2023-02-26T02:05:30;29.50;99.90
31575;DHT22;18182;1.328;103.810;2023-02-26T02:07:53;29.50;99.90
31575;DHT22;18182;1.328;103.810;2023-02-26T02:10:21;29.60;99.90
31575;DHT22;18182;1.328;103.810;2023-02-26T02:12:57;29.70;99.90
31575;DHT22;18182;1.328;103.810;2023-02-26T02:15:29;29.70;99.90
31575;DHT22;18182;1.328;103.810;2023-02-26T02:18:11;29.70;99.90
31575;DHT22;18182;1.328;103.810;2023-02-26T02:33:46;29.70;99.90
31575;DHT22;18182;1.328;103.810;2023-02-26T02:36:16;29.70;99.90
31575;DHT22;18182;1.328;103.810;2023-02-26T02:38:47;29.60;99.90
31575;DHT22;18182;1.328;103.810;2023-02-26T02:41:19;29.60;99.90
31575;DHT22;18182;1.328;103.810;2023-02-26T02:43:47;29.60;99.90
31575;DHT22;18182;1.328;103.810;2023-02-26T02:46:16;29.70;99.90
31575;DHT22;18182;1.328;103.810;2023-02-26T02:48:45;29.60;99.90
31575;DHT22;18182;1.328;103.810;2023-02-26T02:51:14;29.60;99.90
31575;DHT22;18182;1.328;103.810;2023-02-26T02:53:52;29.60;99.90
31575;DHT22;18182;1.328;103.810;2023-02-26T02:56:34;29.60;99.90
31575;DHT22;18182;1.328;103.810;2023-02-26T02:59:09;29.60;99.90
31575;DHT22;18182;1.328;103.810;2023-02-26T03:01:36;29.60;99.90
31575;DHT22;18182;1.328;103.810;2023-02-26T03:04:07;29.60;99.90
31575;DHT22;18182;1.328;103.810;2023-02-26T03:06:35;29.70;99.90
31575;DHT22;18182;1.328;103.810;2023-02-26T03:09:03;29.90;99.90
31575;DHT22;18182;1.328;103.810;2023-02-26T03:11:31;30.10;99.90
31575;DHT22;18182;1.328;103.810;2023-02-26T03:13:57;30.20;99.90
31575;DHT22;18182;1.328;103.810;2023-02-26T03:24:14;30.20;99.90
31575;DHT22;18182;1.328;103.810;2023-02-26T03:26:43;30.20;99.90
31575;DHT22;18182;1.328;103.810;2023-02-26T03:31:51;30.20;99.90
31575;DHT22;18182;1.328;103.810;2023-02-26T03:37:38;30.50;99.90
31575;DHT22;18182;1.328;103.810;2023-02-26T03:40:05;30.60;99.90
31575;DHT22;18182;1.328;103.810;2023-02-26T03:42:46;30.50;99.90
31575;DHT22;18182;1.328;103.810;2023-02-26T03:45:16;30.50;99.90
31575;DHT22;18182;1.328;103.810;2023-02-26T03:47:44;30.40;99.90
31575;DHT22;18182;1.328;103.810;2023-02-26T03:50:16;30.30;99.90
31575;DHT22;18182;1.328;103.810;2023-02-26T03:52:44;30.40;99.90
31575;DHT22;18182;1.328;103.810;2023-02-26T03:55:18;30.40;99.90
31575;DHT22;18182;1.328;103.810;2023-02-26T03:57:45;30.60;99.90
31575;DHT22;18182;1.328;103.810;2023-02-26T04:00:12;30.70;99.90
31575;DHT22;18182;1.328;103.810;2023-02-26T04:02:41;30.80;99.90
31575;DHT22;18182;1.328;103.810;2023-02-26T04:05:13;31.00;99.90
31575;DHT22;18182;1.328;103.810;2023-02-26T04:07:41;31.20;99.90
31575;DHT22;18182;1.328;103.810;2023-02-26T04:10:07;31.10;99.90
31575;DHT22;18182;1.328;103.810;2023-02-26T04:12:34;31.20;99.90
31575;DHT22;18182;1.328;103.810;2023-02-26T04:15:00;31.20;99.90
31575;DHT22;18182;1.328;103.810;2023-02-26T04:17:27;31.30;99.90
31575;DHT22;18182;1.328;103.810;2023-02-26T04:19:53;31.40;99.90
31575;DHT22;18182;1.328;103.810;2023-02-26T04:22:19;31.50;99.90
31575;DHT22;18182;1.328;103.810;2023-02-26T04:24:45;31.60;99.90
31575;DHT22;18182;1.328;103.810;2023-02-26T04:27:11;31.60;99.90
31575;DHT22;18182;1.328;103.810;2023-02-26T04:29:37;31.60;99.90
31575;DHT22;18182;1.328;103.810;2023-02-26T04:32:03;31.70;99.90
31575;DHT22;18182;1.328;103.810;2023-02-26T04:34:29;31.80;99.90
31575;DHT22;18182;1.328;103.810;2023-02-26T04:36:55;31.90;99.90
31575;DHT22;18182;1.328;103.810;2023-02-26T04:39:21;32.00;99.90
31575;DHT22;18182;1.328;103.810;2023-02-26T04:41:48;32.10;99.90
31575;DHT22;18182;1.328;103.810;2023-02-26T04:44:14;32.10;99.90
31575;DHT22;18182;1.328;103.810;2023-02-26T04:46:40;32.20;99.90
31575;DHT22;18182;1.328;103.810;2023-02-26T04:49:06;32.20;99.90
31575;DHT22;18182;1.328;103.810;2023-02-26T04:51:32;32.20;99.90
31575;DHT22;18182;1.328;103.810;2023-02-26T04:53:59;32.10;99.90
31575;DHT22;18182;1.328;103.810;2023-02-26T04:56:25;32.10;99.90
31575;DHT22;18182;1.328;103.810;2023-02-26T04:58:51;32.10;99.90
31575;DHT22;18182;1.328;103.810;2023-02-26T05:01:17;32.00;99.90
31575;DHT22;18182;1.328;103.810;2023-02-26T05:03:43;32.00;99.90
31575;DHT22;18182;1.328;103.810;2023-02-26T05:06:09;32.10;99.90
31575;DHT22;18182;1.328;103.810;2023-02-26T05:08:35;31.90;99.90
31575;DHT22;18182;1.328;103.810;2023-02-26T05:11:06;32.00;99.90
31575;DHT22;18182;1.328;103.810;2023-02-26T05:13:32;31.90;99.90
31575;DHT22;18182;1.328;103.810;2023-02-26T05:15:58;32.00;99.90
31575;DHT22;18182;1.328;103.810;2023-02-26T05:18:24;31.90;99.90
31575;DHT22;18182;1.328;103.810;2023-02-26T05:20:54;31.90;99.90
31575;DHT22;18182;1.328;103.810;2023-02-26T05:23:20;31.70;99.90
31575;DHT22;18182;1.328;103.810;2023-02-26T05:25:46;31.60;99.90
31575;DHT22;18182;1.328;103.810;2023-02-26T05:28:13;31.60;99.90
31575;DHT22;18182;1.328;103.810;2023-02-26T05:30:39;31.70;99.90
31575;DHT22;18182;1.328;103.810;2023-02-26T05:33:05;31.80;99.90
31575;DHT22;18182;1.328;103.810;2023-02-26T05:35:31;31.90;99.90
31575;DHT22;18182;1.328;103.810;2023-02-26T05:37:57;32.00;99.90
31575;DHT22;18182;1.328;103.810;2023-02-26T05:40:24;32.10;99.90
31575;DHT22;18182;1.328;103.810;2023-02-26T05:42:51;32.20;99.90
31575;DHT22;18182;1.328;103.810;2023-02-26T05:45:17;32.10;99.90
31575;DHT22;18182;1.328;103.810;2023-02-26T05:47:43;32.20;99.90
31575;DHT22;18182;1.328;103.810;2023-02-26T05:50:09;32.30;99.90
31575;DHT22;18182;1.328;103.810;2023-02-26T05:52:35;32.30;99.90
31575;DHT22;18182;1.328;103.810;2023-02-26T05:55:02;32.30;99.90
31575;DHT22;18182;1.328;103.810;2023-02-26T05:57:28;32.30;99.90
31575;DHT22;18182;1.328;103.810;2023-02-26T05:59:54;32.30;99.90
31575;DHT22;18182;1.328;103.810;2023-02-26T06:02:22;32.30;99.90
31575;DHT22;18182;1.328;103.810;2023-02-26T06:04:48;32.30;99.90
31575;DHT22;18182;1.328;103.810;2023-02-26T06:07:14;32.40;99.90
31575;DHT22;18182;1.328;103.810;2023-02-26T06:09:40;32.50;99.90
31575;DHT22;18182;1.328;103.810;2023-02-26T06:12:06;32.50;99.90
31575;DHT22;18182;1.328;103.810;2023-02-26T06:14:33;32.50;99.90
31575;DHT22;18182;1.328;103.810;2023-02-26T06:17:01;32.50;99.90
31575;DHT22;18182;1.328;103.810;2023-02-26T06:19:27;32.50;99.90
31575;DHT22;18182;1.328;103.810;2023-02-26T06:21:53;32.50;99.90
31575;DHT22;18182;1.328;103.810;2023-02-26T06:24:19;32.60;99.90
31575;DHT22;18182;1.328;103.810;2023-02-26T06:26:47;32.60;99.90
31575;DHT22;18182;1.328;103.810;2023-02-26T06:29:13;32.70;99.90
31575;DHT22;18182;1.328;103.810;2023-02-26T06:31:40;32.70;99.90
31575;DHT22;18182;1.328;103.810;2023-02-26T06:34:06;32.60;99.90
31575;DHT22;18182;1.328;103.810;2023-02-26T06:36:32;32.60;99.90
31575;DHT22;18182;1.328;103.810;2023-02-26T06:38:58;32.60;99.90
31575;DHT22;18182;1.328;103.810;2023-02-26T06:41:24;32.70;99.90
31575;DHT22;18182;1.328;103.810;2023-02-26T06:43:51;32.80;99.90
31575;DHT22;18182;1.328;103.810;2023-02-26T06:46:17;32.70;99.90
31575;DHT22;18182;1.328;103.810;2023-02-26T06:48:43;32.70;99.90
31575;DHT22;18182;1.328;103.810;2023-02-26T06:51:09;32.70;99.90
31575;DHT22;18182;1.328;103.810;2023-02-26T06:53:35;32.70;99.90
31575;DHT22;18182;1.328;103.810;2023-02-26T06:56:01;32.70;99.90
31575;DHT22;18182;1.328;103.810;2023-02-26T06:58:27;32.70;99.90
31575;DHT22;18182;1.328;103.810;2023-02-26T07:00:53;32.70;99.90
31575;DHT22;18182;1.328;103.810;2023-02-26T07:03:20;32.80;99.90
31575;DHT22;18182;1.328;103.810;2023-02-26T07:05:46;32.70;99.90
31575;DHT22;18182;1.328;103.810;2023-02-26T07:08:12;32.70;99.90
31575;DHT22;18182;1.328;103.810;2023-02-26T07:10:39;32.60;99.90
31575;DHT22;18182;1.328;103.810;2023-02-26T07:13:05;32.50;99.90
31575;DHT22;18182;1.328;103.810;2023-02-26T07:15:32;32.60;99.90
31575;DHT22;18182;1.328;103.810;2023-02-26T07:17:58;32.70;99.90
31575;DHT22;18182;1.328;103.810;2023-02-26T07:20:27;32.70;99.90
31575;DHT22;18182;1.328;103.810;2023-02-26T07:22:54;32.50;99.90
31575;DHT22;18182;1.328;103.810;2023-02-26T07:25:20;32.50;99.90
31575;DHT22;18182;1.328;103.810;2023-02-26T07:27:46;32.50;99.90
31575;DHT22;18182;1.328;103.810;2023-02-26T07:30:12;32.40;99.90
31575;DHT22;18182;1.328;103.810;2023-02-26T07:32:39;32.40;99.90
31575;DHT22;18182;1.328;103.810;2023-02-26T07:35:05;32.30;99.90
31575;DHT22;18182;1.328;103.810;2023-02-26T07:37:31;32.30;99.90
31575;DHT22;18182;1.328;103.810;2023-02-26T07:39:58;32.10;99.90
31575;DHT22;18182;1.328;103.810;2023-02-26T07:42:24;32.10;99.90
31575;DHT22;18182;1.328;103.810;2023-02-26T07:44:50;32.10;99.90
31575;DHT22;18182;1.328;103.810;2023-02-26T07:47:16;32.00;99.90
31575;DHT22;18182;1.328;103.810;2023-02-26T07:49:42;32.00;99.90
31575;DHT22;18182;1.328;103.810;2023-02-26T07:52:09;32.00;99.90
31575;DHT22;18182;1.328;103.810;2023-02-26T07:54:35;31.90;99.90
31575;DHT22;18182;1.328;103.810;2023-02-26T07:57:02;31.80;99.90
31575;DHT22;18182;1.328;103.810;2023-02-26T07:59:28;31.80;99.90
31575;DHT22;18182;1.328;103.810;2023-02-26T08:01:54;31.80;99.90
31575;DHT22;18182;1.328;103.810;2023-02-26T08:04:20;31.70;99.90
31575;DHT22;18182;1.328;103.810;2023-02-26T08:06:46;31.70;99.90
31575;DHT22;18182;1.328;103.810;2023-02-26T08:09:12;31.70;99.90
31575;DHT22;18182;1.328;103.810;2023-02-26T08:11:38;31.70;99.90
31575;DHT22;18182;1.328;103.810;2023-02-26T08:14:08;31.60;99.90
31575;DHT22;18182;1.328;103.810;2023-02-26T08:16:34;31.60;99.90
31575;DHT22;18182;1.328;103.810;2023-02-26T08:19:00;31.60;99.90
31575;DHT22;18182;1.328;103.810;2023-02-26T08:21:27;31.60;99.90
31575;DHT22;18182;1.328;103.810;2023-02-26T08:23:53;31.60;99.90
31575;DHT22;18182;1.328;103.810;2023-02-26T08:26:19;31.40;99.90
31575;DHT22;18182;1.328;103.810;2023-02-26T08:28:45;31.40;99.90
31575;DHT22;18182;1.328;103.810;2023-02-26T08:31:12;31.30;99.90
31575;DHT22;18182;1.328;103.810;2023-02-26T08:33:39;31.20;99.90
31575;DHT22;18182;1.328;103.810;2023-02-26T08:36:07;31.20;99.90
31575;DHT22;18182;1.328;103.810;2023-02-26T08:38:33;31.20;99.90
31575;DHT22;18182;1.328;103.810;2023-02-26T08:40:59;31.20;99.90
31575;DHT22;18182;1.328;103.810;2023-02-26T08:43:25;31.10;99.90
31575;DHT22;18182;1.328;103.810;2023-02-26T08:45:53;31.10;99.90
31575;DHT22;18182;1.328;103.810;2023-02-26T08:48:19;31.20;99.90
31575;DHT22;18182;1.328;103.810;2023-02-26T08:50:46;31.20;99.90
31575;DHT22;18182;1.328;103.810;2023-02-26T08:53:12;31.10;99.90
31575;DHT22;18182;1.328;103.810;2023-02-26T08:55:38;31.10;99.90
31575;DHT22;18182;1.328;103.810;2023-02-26T08:58:04;31.10;99.90
31575;DHT22;18182;1.328;103.810;2023-02-26T09:00:30;31.10;99.90
31575;DHT22;18182;1.328;103.810;2023-02-26T09:02:56;31.10;99.90
31575;DHT22;18182;1.328;103.810;2023-02-26T09:05:22;31.10;99.90
31575;DHT22;18182;1.328;103.810;2023-02-26T09:07:49;31.10;99.90
31575;DHT22;18182;1.328;103.810;2023-02-26T09:10:15;31.10;99.90
31575;DHT22;18182;1.328;103.810;2023-02-26T09:12:41;31.10;99.90
31575;DHT22;18182;1.328;103.810;2023-02-26T09:15:08;31.10;99.90
31575;DHT22;18182;1.328;103.810;2023-02-26T09:17:35;31.10;99.90
31575;DHT22;18182;1.328;103.810;2023-02-26T09:20:02;31.10;99.90
31575;DHT22;18182;1.328;103.810;2023-02-26T09:22:28;31.00;99.90
31575;DHT22;18182;1.328;103.810;2023-02-26T09:24:55;31.00;99.90
31575;DHT22;18182;1.328;103.810;2023-02-26T09:27:21;30.90;99.90
31575;DHT22;18182;1.328;103.810;2023-02-26T09:29:48;31.00;99.90
31575;DHT22;18182;1.328;103.810;2023-02-26T09:32:14;31.10;99.90
31575;DHT22;18182;1.328;103.810;2023-02-26T09:34:40;31.00;99.90
31575;DHT22;18182;1.328;103.810;2023-02-26T09:37:07;30.90;99.90
31575;DHT22;18182;1.328;103.810;2023-02-26T09:39:34;30.90;99.90
31575;DHT22;18182;1.328;103.810;2023-02-26T09:44:45;30.90;99.90
31575;DHT22;18182;1.328;103.810;2023-02-26T09:47:18;30.90;99.90
31575;DHT22;18182;1.328;103.810;2023-02-26T09:54:42;30.80;99.90
31575;DHT22;18182;1.328;103.810;2023-02-26T09:57:10;30.70;99.90
31575;DHT22;18182;1.328;103.810;2023-02-26T09:59:38;30.70;99.90
31575;DHT22;18182;1.328;103.810;2023-02-26T10:07:51;30.60;99.90
31575;DHT22;18182;1.328;103.810;2023-02-26T10:12:50;30.60;99.90
31575;DHT22;18182;1.328;103.810;2023-02-26T10:15:19;30.60;99.90
31575;DHT22;18182;1.328;103.810;2023-02-26T10:20:26;30.50;99.90
31575;DHT22;18182;1.328;103.810;2023-02-26T10:25:35;30.50;99.90
31575;DHT22;18182;1.328;103.810;2023-02-26T10:30:42;30.40;99.90
31575;DHT22;18182;1.328;103.810;2023-02-26T10:35:57;30.40;99.90
31575;DHT22;18182;1.328;103.810;2023-02-26T10:38:26;30.30;99.90
31575;DHT22;18182;1.328;103.810;2023-02-26T10:43:22;30.30;99.90
31575;DHT22;18182;1.328;103.810;2023-02-26T10:51:00;30.30;99.90
31575;DHT22;18182;1.328;103.810;2023-02-26T10:53:30;30.20;99.90
31575;DHT22;18182;1.328;103.810;2023-02-26T10:58:34;30.10;99.90
31575;DHT22;18182;1.328;103.810;2023-02-26T11:01:00;30.10;99.90
31575;DHT22;18182;1.328;103.810;2023-02-26T11:03:31;30.10;99.90
31575;DHT22;18182;1.328;103.810;2023-02-26T11:05:59;30.00;99.90
31575;DHT22;18182;1.328;103.810;2023-02-26T11:08:44;30.00;99.90
31575;DHT22;18182;1.328;103.810;2023-02-26T11:11:11;29.90;99.90
31575;DHT22;18182;1.328;103.810;2023-02-26T11:13:57;29.90;99.90
31575;DHT22;18182;1.328;103.810;2023-02-26T11:16:24;29.90;99.90
31575;DHT22;18182;1.328;103.810;2023-02-26T11:18:52;29.90;99.90
31575;DHT22;18182;1.328;103.810;2023-02-26T11:21:23;29.90;99.90
31575;DHT22;18182;1.328;103.810;2023-02-26T11:23:52;29.90;99.90
31575;DHT22;18182;1.328;103.810;2023-02-26T11:26:24;29.80;99.90
31575;DHT22;18182;1.328;103.810;2023-02-26T11:28:52;29.80;99.90
31575;DHT22;18182;1.328;103.810;2023-02-26T11:31:20;29.70;99.90
31575;DHT22;18182;1.328;103.810;2023-02-26T11:33:53;29.70;99.90
31575;DHT22;18182;1.328;103.810;2023-02-26T11:36:24;29.70;99.90
31575;DHT22;18182;1.328;103.810;2023-02-26T11:38:52;29.70;99.90
31575;DHT22;18182;1.328;103.810;2023-02-26T11:41:20;29.70;99.90
31575;DHT22;18182;1.328;103.810;2023-02-26T11:43:48;29.70;99.90
31575;DHT22;18182;1.328;103.810;2023-02-26T11:46:22;29.70;99.90
31575;DHT22;18182;1.328;103.810;2023-02-26T11:48:50;29.70;99.90
31575;DHT22;18182;1.328;103.810;2023-02-26T11:51:18;29.60;99.90
31575;DHT22;18182;1.328;103.810;2023-02-26T11:56:18;29.60;99.90
31575;DHT22;18182;1.328;103.810;2023-02-26T11:58:45;29.60;99.90
31575;DHT22;18182;1.328;103.810;2023-02-26T12:01:12;29.60;99.90
31575;DHT22;18182;1.328;103.810;2023-02-26T12:03:39;29.50;99.90
31575;DHT22;18182;1.328;103.810;2023-02-26T12:06:15;29.50;99.90
31575;DHT22;18182;1.328;103.810;2023-02-26T12:08:41;29.50;99.90
31575;DHT22;18182;1.328;103.810;2023-02-26T12:16:12;29.20;99.90
31575;DHT22;18182;1.328;103.810;2023-02-26T12:18:43;29.10;99.90
31575;DHT22;18182;1.328;103.810;2023-02-26T12:26:27;29.00;99.90
31575;DHT22;18182;1.328;103.810;2023-02-26T12:29:04;29.00;99.90
31575;DHT22;18182;1.328;103.810;2023-02-26T12:31:51;29.00;99.90
31575;DHT22;18182;1.328;103.810;2023-02-26T12:39:21;28.90;99.90
31575;DHT22;18182;1.328;103.810;2023-02-26T12:44:57;28.70;99.90
31575;DHT22;18182;1.328;103.810;2023-02-26T13:07:47;28.50;99.90
31575;DHT22;18182;1.328;103.810;2023-02-26T13:15:50;28.50;99.90
31575;DHT22;18182;1.328;103.810;2023-02-26T13:20:51;28.60;99.90
31575;DHT22;18182;1.328;103.810;2023-02-26T13:23:22;28.60;99.90
31575;DHT22;18182;1.328;103.810;2023-02-26T13:25:50;28.50;99.90
31575;DHT22;18182;1.328;103.810;2023-02-26T13:28:24;28.50;99.90
31575;DHT22;18182;1.328;103.810;2023-02-26T13:30:52;28.40;99.90
31575;DHT22;18182;1.328;103.810;2023-02-26T13:33:19;28.40;99.90
31575;DHT22;18182;1.328;103.810;2023-02-26T13:35:48;28.40;99.90
31575;DHT22;18182;1.328;103.810;2023-02-26T13:40:46;28.40;99.90
31575;DHT22;18182;1.328;103.810;2023-02-26T13:46:01;28.30;99.90
31575;DHT22;18182;1.328;103.810;2023-02-26T13:51:36;28.20;99.90
31575;DHT22;18182;1.328;103.810;2023-02-26T14:06:44;28.30;99.90
31575;DHT22;18182;1.328;103.810;2023-02-26T14:14:32;28.40;99.90
31575;DHT22;18182;1.328;103.810;2023-02-26T14:19:37;28.30;99.90
31575;DHT22;18182;1.328;103.810;2023-02-26T14:24:57;28.30;99.90
31575;DHT22;18182;1.328;103.810;2023-02-26T14:27:33;28.30;99.90
31575;DHT22;18182;1.328;103.810;2023-02-26T14:35:14;28.40;99.90
31575;DHT22;18182;1.328;103.810;2023-02-26T14:37:44;28.30;99.90
31575;DHT22;18182;1.328;103.810;2023-02-26T14:40:13;28.30;99.90
31575;DHT22;18182;1.328;103.810;2023-02-26T14:42:45;28.30;99.90
31575;DHT22;18182;1.328;103.810;2023-02-26T14:45:21;28.30;99.90
31575;DHT22;18182;1.328;103.810;2023-02-26T14:47:49;28.30;99.90
31575;DHT22;18182;1.328;103.810;2023-02-26T14:50:19;28.30;99.90
31575;DHT22;18182;1.328;103.810;2023-02-26T14:53:06;28.40;99.90
31575;DHT22;18182;1.328;103.810;2023-02-26T14:55:46;28.40;99.90
31575;DHT22;18182;1.328;103.810;2023-02-26T14:58:40;28.40;99.90
31575;DHT22;18182;1.328;103.810;2023-02-26T15:03:51;28.40;99.90
31575;DHT22;18182;1.328;103.810;2023-02-26T15:09:22;28.40;99.90
31575;DHT22;18182;1.328;103.810;2023-02-26T15:17:11;28.40;99.90
31575;DHT22;18182;1.328;103.810;2023-02-26T15:25:05;28.40;99.90
31575;DHT22;18182;1.328;103.810;2023-02-26T15:27:34;28.40;99.90
31575;DHT22;18182;1.328;103.810;2023-02-26T15:30:01;28.40;99.90
31575;DHT22;18182;1.328;103.810;2023-02-26T15:32:28;28.30;99.90
31575;DHT22;18182;1.328;103.810;2023-02-26T15:35:02;28.30;99.90
31575;DHT22;18182;1.328;103.810;2023-02-26T15:37:29;28.30;99.90
31575;DHT22;18182;1.328;103.810;2023-02-26T15:40:00;28.40;99.90
31575;DHT22;18182;1.328;103.810;2023-02-26T15:42:30;28.40;99.90
31575;DHT22;18182;1.328;103.810;2023-02-26T15:44:59;28.40;99.90
31575;DHT22;18182;1.328;103.810;2023-02-26T15:47:30;28.40;99.90
31575;DHT22;18182;1.328;103.810;2023-02-26T15:49:56;28.40;99.90
31575;DHT22;18182;1.328;103.810;2023-02-26T15:52:24;28.30;99.90
31575;DHT22;18182;1.328;103.810;2023-02-26T15:54:57;28.30;99.90
31575;DHT22;18182;1.328;103.810;2023-02-26T15:57:24;28.40;99.90
31575;DHT22;18182;1.328;103.810;2023-02-26T15:59:52;28.40;99.90
31575;DHT22;18182;1.328;103.810;2023-02-26T16:02:23;28.40;99.90
31575;DHT22;18182;1.328;103.810;2023-02-26T16:04:52;28.40;99.90
31575;DHT22;18182;1.328;103.810;2023-02-26T16:07:18;28.40;99.90
31575;DHT22;18182;1.328;103.810;2023-02-26T16:09:45;28.40;99.90
31575;DHT22;18182;1.328;103.810;2023-02-26T16:12:15;28.40;99.90
31575;DHT22;18182;1.328;103.810;2023-02-26T16:14:47;28.40;99.90
31575;DHT22;18182;1.328;103.810;2023-02-26T16:17:18;28.40;99.90
31575;DHT22;18182;1.328;103.810;2023-02-26T16:19:49;28.40;99.90
31575;DHT22;18182;1.328;103.810;2023-02-26T16:24:52;28.30;99.90
31575;DHT22;18182;1.328;103.810;2023-02-26T16:27:19;28.30;99.90
31575;DHT22;18182;1.328;103.810;2023-02-26T16:29:48;28.30;99.90
31575;DHT22;18182;1.328;103.810;2023-02-26T16:32:16;28.30;99.90
31575;DHT22;18182;1.328;103.810;2023-02-26T16:34:48;28.30;99.90
31575;DHT22;18182;1.328;103.810;2023-02-26T16:37:22;28.30;99.90
31575;DHT22;18182;1.328;103.810;2023-02-26T16:39:54;28.30;99.90
31575;DHT22;18182;1.328;103.810;2023-02-26T16:42:22;28.20;99.90
31575;DHT22;18182;1.328;103.810;2023-02-26T16:45:00;28.20;99.90
31575;DHT22;18182;1.328;103.810;2023-02-26T16:47:28;28.20;99.90
31575;DHT22;18182;1.328;103.810;2023-02-26T16:49:55;28.20;99.90
31575;DHT22;18182;1.328;103.810;2023-02-26T16:52:23;28.20;99.90
31575;DHT22;18182;1.328;103.810;2023-02-26T16:54:59;28.20;99.90
31575;DHT22;18182;1.328;103.810;2023-02-26T16:57:34;28.20;99.90
31575;DHT22;18182;1.328;103.810;2023-02-26T17:00:02;28.20;99.90
31575;DHT22;18182;1.328;103.810;2023-02-26T17:02:32;28.20;99.90
31575;DHT22;18182;1.328;103.810;2023-02-26T17:05:21;28.20;99.90
31575;DHT22;18182;1.328;103.810;2023-02-26T17:07:48;28.20;99.90
31575;DHT22;18182;1.328;103.810;2023-02-26T17:10:20;28.20;99.90
31575;DHT22;18182;1.328;103.810;2023-02-26T17:12:48;28.20;99.90
31575;DHT22;18182;1.328;103.810;2023-02-26T17:15:17;28.20;99.90
31575;DHT22;18182;1.328;103.810;2023-02-26T17:17:45;28.20;99.90
31575;DHT22;18182;1.328;103.810;2023-02-26T17:20:12;28.20;99.90
31575;DHT22;18182;1.328;103.810;2023-02-26T17:22:38;28.20;99.90
31575;DHT22;18182;1.328;103.810;2023-02-26T17:25:08;28.10;99.90
31575;DHT22;18182;1.328;103.810;2023-02-26T17:27:35;28.20;99.90
31575;DHT22;18182;1.328;103.810;2023-02-26T17:30:02;28.20;99.90
31575;DHT22;18182;1.328;103.810;2023-02-26T17:32:28;28.20;99.90
31575;DHT22;18182;1.328;103.810;2023-02-26T17:34:56;28.20;99.90
31575;DHT22;18182;1.328;103.810;2023-02-26T17:37:23;28.20;99.90
31575;DHT22;18182;1.328;103.810;2023-02-26T17:39:50;28.20;99.90
31575;DHT22;18182;1.328;103.810;2023-02-26T17:42:17;28.20;99.90
31575;DHT22;18182;1.328;103.810;2023-02-26T17:44:45;28.20;99.90
31575;DHT22;18182;1.328;103.810;2023-02-26T17:47:14;28.20;99.90
31575;DHT22;18182;1.328;103.810;2023-02-26T17:49:41;28.20;99.90
31575;DHT22;18182;1.328;103.810;2023-02-26T17:52:07;28.20;99.90
31575;DHT22;18182;1.328;103.810;2023-02-26T17:54:33;28.20;99.90
31575;DHT22;18182;1.328;103.810;2023-02-26T17:56:59;28.20;99.90
31575;DHT22;18182;1.328;103.810;2023-02-26T17:59:26;28.10;99.90
31575;DHT22;18182;1.328;103.810;2023-02-26T18:01:55;28.10;99.90
31575;DHT22;18182;1.328;103.810;2023-02-26T18:04:21;28.10;99.90
31575;DHT22;18182;1.328;103.810;2023-02-26T18:06:47;28.10;99.90
31575;DHT22;18182;1.328;103.810;2023-02-26T18:09:13;28.00;99.90
31575;DHT22;18182;1.328;103.810;2023-02-26T18:11:40;28.10;99.90
31575;DHT22;18182;1.328;103.810;2023-02-26T18:14:07;28.10;99.90
31575;DHT22;18182;1.328;103.810;2023-02-26T18:16:35;28.00;99.90
31575;DHT22;18182;1.328;103.810;2023-02-26T18:19:04;28.10;99.90
31575;DHT22;18182;1.328;103.810;2023-02-26T18:21:30;28.10;99.90
31575;DHT22;18182;1.328;103.810;2023-02-26T18:23:57;28.00;99.90
31575;DHT22;18182;1.328;103.810;2023-02-26T18:26:26;28.00;99.90
31575;DHT22;18182;1.328;103.810;2023-02-26T18:28:55;28.00;99.90
31575;DHT22;18182;1.328;103.810;2023-02-26T18:31:21;28.10;99.90
31575;DHT22;18182;1.328;103.810;2023-02-26T18:33:49;28.10;99.90
31575;DHT22;18182;1.328;103.810;2023-02-26T18:36:19;28.00;99.90
31575;DHT22;18182;1.328;103.810;2023-02-26T18:38:47;28.00;99.90